createdAt,value
2018-06-08T00:02:07.358Z,44.27
2018-06-08T00:04:35.684Z,43.47
2018-06-08T00:13:27.719Z,44.13
2018-06-08T00:15:57.447Z,45.83
2018-06-08T00:21:27.923Z,48.40
2018-06-08T00:24:03.187Z,49.23
2018-06-08T00:32:17.775Z,46.70
2018-06-08T00:34:53.197Z,44.30
2018-06-08T00:37:21.498Z,45.50
2018-06-08T00:39:51.218Z,51.77
2018-06-08T00:42:23.945Z,45.20
2018-06-08T00:45:00.288Z,39.00
2018-06-08T00:47:31.702Z,40.10
2018-06-08T00:53:06.325Z,40.63
2018-06-08T00:58:47.688Z,39.80
2018-06-08T01:01:29.700Z,38.87
2018-06-08T01:04:10.320Z,48.97
2018-06-08T01:06:39.154Z,41.67
2018-06-08T01:09:18.083Z,44.13
2018-06-08T01:14:42.943Z,36.47
2018-06-08T01:19:58.116Z,40.77
2018-06-08T01:22:28.002Z,42.10
2018-06-08T01:24:56.926Z,43.70
2018-06-08T01:27:26.209Z,38.97
2018-06-08T01:29:55.248Z,46.87
2018-06-08T01:32:23.813Z,47.40
2018-06-08T01:34:52.245Z,41.93
2018-06-08T01:37:20.675Z,37.00
2018-06-08T01:39:49.375Z,40.23
2018-06-08T01:42:18.120Z,43.30
2018-06-08T01:44:46.508Z,46.67
2018-06-08T01:47:14.783Z,40.33
2018-06-08T01:49:43.464Z,42.57
2018-06-08T01:52:11.943Z,49.20
2018-06-08T01:54:40.608Z,44.30
2018-06-08T01:57:09.318Z,45.27
2018-06-08T01:59:38.133Z,47.30
2018-06-08T02:02:06.595Z,46.47
2018-06-08T02:04:35.110Z,43.73
2018-06-08T02:07:03.965Z,48.77
2018-06-08T02:09:32.426Z,43.47
2018-06-08T02:12:01.162Z,50.07
2018-06-08T02:14:29.806Z,57.40
2018-06-08T02:16:58.168Z,49.50
2018-06-08T02:19:26.615Z,58.77
2018-06-08T02:21:55.094Z,47.00
2018-06-08T02:24:24.076Z,48.80
2018-06-08T02:26:53.613Z,62.13
2018-06-08T02:29:21.807Z,61.07
2018-06-08T02:31:50.620Z,62.23
2018-06-08T02:34:25.704Z,50.67
2018-06-08T02:36:54.364Z,55.67
2018-06-08T02:39:23.189Z,55.13
2018-06-08T02:41:51.630Z,52.73
2018-06-08T02:44:20.261Z,56.90
2018-06-08T02:46:48.742Z,54.30
2018-06-08T02:49:17.012Z,58.03
2018-06-08T02:51:45.804Z,58.00
2018-06-08T02:54:14.170Z,59.57
2018-06-08T02:56:45.414Z,66.13
2018-06-08T02:59:14.762Z,91.23
2018-06-08T03:01:43.173Z,66.70
2018-06-08T03:04:11.882Z,65.47
2018-06-08T03:06:40.369Z,62.67
2018-06-08T03:09:08.782Z,68.43
2018-06-08T03:11:37.099Z,70.53
2018-06-08T03:14:24.414Z,80.07
2018-06-08T03:16:54.961Z,79.43
2018-06-08T03:19:33.566Z,83.90
2018-06-08T03:30:24.041Z,69.87
2018-06-08T03:32:53.135Z,77.93
2018-06-08T03:35:24.344Z,86.67
2018-06-08T03:37:55.209Z,76.50
2018-06-08T03:40:34.747Z,71.23
2018-06-08T03:46:23.377Z,65.53
2018-06-08T03:51:57.969Z,67.37
2018-06-08T03:54:27.745Z,68.20
2018-06-08T03:59:49.604Z,56.83
2018-06-08T04:02:40.728Z,76.33
2018-06-08T04:08:03.724Z,69.43
2018-06-08T04:13:25.462Z,61.97
2018-06-08T04:16:29.733Z,69.13
2018-06-08T04:21:53.796Z,70.97
2018-06-08T04:24:22.753Z,65.43
2018-06-08T04:26:57.792Z,65.73
2018-06-08T04:29:38.527Z,68.50
2018-06-08T04:32:06.902Z,68.03
2018-06-08T04:34:36.112Z,69.20
2018-06-08T04:37:04.945Z,71.27
2018-06-08T04:39:35.318Z,72.37
2018-06-08T04:42:04.266Z,69.57
2018-06-08T04:44:53.194Z,79.50
2018-06-08T04:50:44.456Z,80.87
2018-06-08T04:53:26.143Z,77.13
2018-06-08T04:55:55.484Z,72.47
2018-06-08T04:58:24.594Z,69.10
2018-06-08T05:00:54.398Z,72.07
2018-06-08T05:03:25.075Z,67.80
2018-06-08T05:08:39.102Z,66.00
2018-06-08T05:14:04.020Z,73.07
2018-06-08T05:16:32.879Z,67.83
2018-06-08T05:19:01.904Z,68.70
2018-06-08T05:24:34.617Z,74.40
2018-06-08T05:27:03.151Z,64.03
2018-06-08T05:29:43.938Z,67.13
2018-06-08T05:32:25.160Z,67.87
2018-06-08T05:34:54.174Z,63.03
2018-06-08T05:37:54.109Z,66.27
2018-06-08T05:40:30.126Z,75.00
2018-06-08T05:43:04.132Z,61.40
2018-06-08T05:48:31.590Z,76.07
2018-06-08T05:51:00.598Z,72.00
2018-06-08T05:53:41.648Z,69.90
2018-06-08T05:56:11.737Z,76.93
2018-06-08T06:01:47.849Z,75.70
2018-06-08T06:10:02.163Z,69.13
2018-06-08T06:12:30.776Z,72.83
2018-06-08T06:14:59.525Z,73.67
2018-06-08T06:20:30.675Z,75.60
2018-06-08T06:22:59.233Z,68.50
2018-06-08T06:25:28.083Z,70.80
2018-06-08T06:36:46.889Z,64.63
2018-06-08T06:42:10.346Z,71.07
2018-06-08T06:44:38.807Z,74.53
2018-06-08T06:47:07.328Z,76.10
2018-06-08T06:49:36.074Z,85.43
2018-06-08T06:52:30.330Z,71.83
2018-06-08T06:55:22.374Z,76.50
2018-06-08T06:57:56.772Z,81.10
2018-06-08T07:03:17.618Z,71.80
2018-06-08T07:08:48.624Z,74.83
2018-06-08T07:17:17.266Z,75.27
2018-06-08T07:22:53.846Z,71.57
2018-06-08T07:29:22.375Z,75.57
2018-06-08T07:32:36.274Z,82.03
2018-06-08T07:35:09.300Z,64.53
2018-06-08T07:37:38.082Z,70.80
2018-06-08T07:40:07.415Z,86.00
2018-06-08T07:42:43.664Z,76.63
2018-06-08T07:45:11.948Z,80.77
2018-06-08T07:47:40.306Z,78.43
2018-06-08T07:50:08.909Z,76.33
2018-06-08T07:52:37.789Z,75.60
2018-06-08T07:55:08.743Z,82.27
2018-06-08T07:57:37.204Z,77.17
2018-06-08T08:00:05.690Z,76.83
2018-06-08T08:02:34.637Z,83.97
2018-06-08T08:05:03.590Z,81.17
2018-06-08T08:07:33.133Z,82.17
2018-06-08T08:10:01.396Z,75.87
2018-06-08T08:12:29.969Z,73.03
2018-06-08T08:14:58.958Z,76.17
2018-06-08T08:17:27.974Z,83.63
2018-06-08T08:19:57.405Z,76.70
2018-06-08T08:22:26.666Z,80.00
2018-06-08T08:24:54.692Z,80.10
2018-06-08T08:27:23.401Z,88.37
2018-06-08T08:29:52.019Z,87.03
2018-06-08T08:32:20.248Z,87.37
2018-06-08T08:34:48.304Z,90.23
2018-06-08T08:37:16.617Z,96.20
2018-06-08T08:39:45.287Z,84.47
2018-06-08T08:42:13.353Z,87.00
2018-06-08T08:44:44.793Z,100.20
2018-06-08T08:50:24.194Z,119.07
2018-06-08T08:52:52.619Z,136.87
2018-06-08T08:55:20.934Z,140.67
2018-06-08T08:57:49.205Z,116.37
2018-06-08T09:00:17.403Z,141.50
2018-06-08T09:02:45.640Z,147.60
2018-06-08T09:05:14.674Z,154.73
2018-06-08T09:07:42.928Z,153.97
2018-06-08T09:10:11.185Z,178.50
2018-06-08T09:12:39.506Z,187.47
2018-06-08T09:15:07.745Z,187.40
2018-06-08T09:17:35.977Z,194.53
2018-06-08T09:20:04.880Z,179.37
2018-06-08T09:22:33.179Z,181.07
2018-06-08T09:25:01.421Z,150.13
2018-06-08T09:27:29.653Z,157.70
2018-06-08T09:29:57.944Z,156.70
2018-06-08T09:32:26.184Z,155.00
2018-06-08T09:34:54.495Z,152.93
2018-06-08T09:37:22.438Z,148.23
2018-06-08T09:39:50.640Z,163.83
2018-06-08T09:42:18.645Z,164.07
2018-06-08T09:44:46.873Z,159.80
2018-06-08T09:47:15.084Z,149.33
2018-06-08T09:49:43.085Z,143.33
2018-06-08T09:52:11.298Z,139.50
2018-06-08T09:54:39.544Z,131.87
2018-06-08T09:57:07.938Z,142.90
2018-06-08T09:59:36.171Z,127.50
2018-06-08T10:02:04.730Z,120.47
2018-06-08T10:04:32.984Z,112.57
2018-06-08T10:07:01.414Z,100.93
2018-06-08T10:09:29.376Z,98.40
2018-06-08T10:11:57.573Z,110.03
2018-06-08T10:14:25.558Z,82.63
2018-06-08T10:16:53.492Z,79.87
2018-06-08T10:19:21.553Z,88.33
2018-06-08T10:21:49.496Z,68.97
2018-06-08T10:24:17.685Z,56.93
2018-06-08T10:26:45.904Z,60.83
2018-06-08T10:29:14.017Z,51.60
2018-06-08T10:31:42.457Z,48.17
2018-06-08T10:34:10.760Z,46.50
2018-06-08T10:36:44.718Z,44.87
2018-06-08T10:39:13.086Z,51.03
2018-06-08T10:41:41.296Z,53.10
2018-06-08T10:44:10.079Z,61.30
2018-06-08T10:46:38.356Z,52.07
2018-06-08T10:49:06.521Z,57.30
2018-06-08T10:51:45.289Z,53.73
2018-06-08T10:54:15.955Z,57.97
2018-06-08T10:56:45.463Z,65.40
2018-06-08T10:59:13.805Z,59.63
2018-06-08T11:01:57.215Z,61.97
2018-06-08T11:04:25.576Z,52.53
2018-06-08T11:09:41.167Z,54.07
2018-06-08T11:12:12.612Z,53.10
2018-06-08T11:14:57.458Z,38.47
2018-06-08T11:20:44.590Z,43.47
2018-06-08T11:23:16.476Z,44.60
2018-06-08T11:25:44.896Z,38.17
2018-06-08T11:28:14.883Z,36.53
2018-06-08T11:30:43.674Z,37.30
2018-06-08T11:33:15.059Z,34.97
2018-06-08T11:35:49.562Z,35.20
2018-06-08T11:38:18.558Z,39.37
2018-06-08T11:43:48.633Z,41.30
2018-06-08T11:46:24.953Z,39.13
2018-06-08T11:49:00.818Z,38.50
2018-06-08T11:51:40.806Z,41.77
2018-06-08T11:55:54.430Z,41.17
2018-06-08T11:58:39.660Z,40.50
2018-06-08T12:04:31.828Z,41.30
2018-06-08T12:07:23.869Z,37.37
2018-06-08T12:09:55.869Z,35.73
2018-06-08T12:15:30.113Z,32.30
2018-06-08T12:17:58.577Z,35.53
2018-06-08T12:26:22.789Z,33.77
2018-06-08T12:29:22.194Z,35.10
2018-06-08T12:31:59.992Z,32.80
2018-06-08T12:34:30.268Z,29.87
2018-06-08T12:37:12.521Z,28.57
2018-06-08T12:39:40.962Z,34.23
2018-06-08T12:42:28.772Z,27.23
2018-06-08T12:44:57.995Z,30.13
2018-06-08T12:47:36.387Z,26.13
2018-06-08T12:50:11.399Z,21.83
2018-06-08T12:52:40.027Z,25.10
2018-06-08T12:55:08.342Z,26.40
2018-06-08T12:57:37.048Z,20.57
2018-06-08T13:00:05.875Z,24.07
2018-06-08T13:02:34.194Z,18.53
2018-06-08T13:05:02.603Z,18.63
2018-06-08T13:07:31.108Z,20.30
2018-06-08T13:09:59.477Z,23.23
2018-06-08T13:12:27.942Z,24.67
2018-06-08T13:14:56.509Z,23.33
2018-06-08T13:17:25.021Z,22.13
2018-06-08T13:19:54.130Z,21.40
2018-06-08T13:22:22.713Z,26.30
2018-06-08T13:24:51.216Z,19.97
2018-06-08T13:27:19.632Z,22.40
2018-06-08T13:29:48.041Z,21.37
2018-06-08T13:32:16.442Z,28.80
2018-06-08T13:34:44.698Z,27.43
2018-06-08T13:37:13.093Z,29.00
2018-06-08T13:39:41.490Z,29.17
2018-06-08T13:42:09.744Z,27.20
2018-06-08T13:44:38.383Z,26.90
2018-06-08T13:47:10.751Z,32.00
2018-06-08T13:49:39.394Z,24.40
2018-06-08T13:52:07.931Z,24.43
2018-06-08T13:54:36.209Z,22.27
2018-06-08T13:57:04.629Z,22.33
2018-06-08T13:59:33.015Z,18.13
2018-06-08T14:02:01.502Z,19.17
2018-06-08T14:04:29.935Z,23.63
2018-06-08T14:06:58.298Z,23.50
2018-06-08T14:09:26.825Z,24.53
2018-06-08T14:11:55.260Z,22.87
2018-06-08T14:14:24.000Z,23.63
2018-06-08T14:16:52.684Z,20.50
2018-06-08T14:19:24.793Z,28.23
2018-06-08T14:21:53.202Z,29.13
2018-06-08T14:24:21.665Z,21.43
2018-06-08T14:26:50.322Z,22.07
2018-06-08T14:29:18.725Z,23.20
2018-06-08T14:31:47.213Z,21.43
2018-06-08T14:34:15.579Z,15.70
2018-06-08T14:36:44.005Z,16.23
2018-06-08T14:39:12.949Z,17.40
2018-06-08T14:41:41.382Z,18.57
2018-06-08T14:44:14.675Z,21.33
2018-06-08T14:46:46.760Z,16.23
2018-06-08T14:49:14.836Z,20.63
2018-06-08T14:51:46.296Z,19.67
2018-06-08T14:54:19.254Z,18.43
2018-06-08T14:56:49.819Z,17.33
2018-06-08T14:59:19.174Z,17.77
2018-06-08T15:01:48.805Z,20.23
2018-06-08T15:04:19.413Z,17.70
2018-06-08T15:06:52.264Z,20.87
2018-06-08T15:09:23.772Z,17.73
2018-06-08T15:11:52.163Z,16.70
2018-06-08T15:14:20.197Z,15.43
2018-06-08T15:16:49.569Z,17.20
2018-06-08T15:19:18.504Z,19.03
2018-06-08T15:21:46.914Z,16.77
2018-06-08T15:24:14.968Z,14.43
2018-06-08T15:26:43.410Z,20.17
2018-06-08T15:29:12.439Z,18.70
2018-06-08T15:31:42.032Z,17.90
2018-06-08T15:34:11.092Z,16.83
2018-06-08T15:36:39.558Z,18.60
2018-06-08T15:39:11.234Z,22.20
2018-06-08T15:41:39.464Z,16.77
2018-06-08T15:44:08.155Z,22.97
2018-06-08T15:46:36.128Z,19.63
2018-06-08T15:49:04.465Z,15.50
2018-06-08T15:51:32.446Z,17.10
2018-06-08T15:54:00.909Z,16.90
2018-06-08T15:56:29.164Z,18.90
2018-06-08T15:58:57.437Z,17.47
2018-06-08T16:01:25.523Z,16.70
2018-06-08T16:03:53.778Z,18.63
2018-06-08T16:06:22.278Z,13.73
2018-06-08T16:08:50.536Z,16.10
2018-06-08T16:11:18.978Z,25.53
2018-06-08T16:13:48.037Z,21.17
2018-06-08T16:16:16.249Z,24.87
2018-06-08T16:18:44.918Z,25.23
2018-06-08T16:21:12.999Z,27.27
2018-06-08T16:23:41.244Z,23.97
2018-06-08T16:26:09.544Z,20.50
2018-06-08T16:28:37.650Z,24.70
2018-06-08T16:31:06.049Z,23.50
2018-06-08T16:33:34.068Z,21.80
2018-06-08T16:36:02.823Z,26.60
2018-06-08T16:38:31.030Z,20.53
2018-06-08T16:40:59.848Z,23.77
2018-06-08T16:43:28.161Z,25.80
2018-06-08T16:45:56.472Z,32.67
2018-06-08T16:48:24.713Z,26.60
2018-06-08T16:50:52.801Z,26.37
2018-06-08T16:53:21.302Z,24.93
2018-06-08T16:55:49.930Z,27.37
2018-06-08T16:58:18.019Z,27.30
2018-06-08T17:00:46.300Z,30.37
2018-06-08T17:03:14.569Z,32.13
2018-06-08T17:05:42.853Z,33.27
2018-06-08T17:08:11.127Z,25.90
2018-06-08T17:10:39.552Z,25.93
2018-06-08T17:13:07.997Z,33.47
2018-06-08T17:15:37.177Z,31.33
2018-06-08T17:18:05.508Z,29.80
2018-06-08T17:20:33.753Z,34.43
2018-06-08T17:23:02.078Z,37.87
2018-06-08T17:25:30.473Z,28.70
2018-06-08T17:27:58.772Z,30.70
2018-06-08T17:30:27.014Z,34.57
2018-06-08T17:32:55.320Z,36.40
2018-06-08T17:35:23.568Z,37.17
2018-06-08T17:37:51.835Z,37.73
2018-06-08T17:40:19.837Z,41.03
2018-06-08T17:42:48.158Z,40.57
2018-06-08T17:45:16.466Z,42.83
2018-06-08T17:47:44.425Z,42.90
2018-06-08T17:50:12.737Z,45.20
2018-06-08T17:52:40.815Z,47.47
2018-06-08T17:55:09.108Z,46.77
2018-06-08T17:57:40.416Z,45.43
2018-06-08T18:00:08.799Z,48.50
2018-06-08T18:02:36.752Z,55.63
2018-06-08T18:05:05.761Z,39.63
2018-06-08T18:07:33.967Z,44.07
2018-06-08T18:10:02.173Z,45.23
2018-06-08T18:12:30.580Z,41.83
2018-06-08T18:14:58.910Z,40.03
2018-06-08T18:17:28.023Z,45.30
2018-06-08T18:19:56.023Z,42.33
2018-06-08T18:22:24.377Z,41.03
2018-06-08T18:24:52.609Z,47.80
2018-06-08T18:27:20.904Z,51.00
2018-06-08T18:29:49.127Z,51.77
2018-06-08T18:32:17.431Z,48.97
2018-06-08T18:34:45.400Z,50.43
2018-06-08T18:37:13.359Z,52.03
2018-06-08T18:39:41.624Z,55.10
2018-06-08T18:42:09.589Z,50.63
2018-06-08T18:44:37.818Z,50.60
2018-06-08T18:47:06.105Z,46.83
2018-06-08T18:52:24.601Z,56.03
2018-06-08T18:54:53.249Z,55.97
2018-06-08T18:57:21.215Z,61.47
2018-06-08T18:59:49.491Z,56.50
2018-06-08T19:02:17.829Z,53.57
2018-06-08T19:04:46.117Z,59.53
2018-06-08T19:07:14.140Z,60.57
2018-06-08T19:09:42.315Z,55.50
2018-06-08T19:12:10.268Z,57.20
2018-06-08T19:14:38.525Z,57.53
2018-06-08T19:17:06.724Z,57.07
2018-06-08T19:19:34.922Z,56.47
2018-06-08T19:22:02.900Z,57.80
2018-06-08T19:24:31.175Z,66.63
2018-06-08T19:26:59.463Z,61.40
2018-06-08T19:29:27.731Z,57.63
2018-06-08T19:31:55.785Z,67.07
2018-06-08T19:34:24.079Z,59.37
2018-06-08T19:36:52.058Z,56.17
2018-06-08T19:39:20.286Z,53.33
2018-06-08T19:41:48.293Z,62.30
2018-06-08T19:44:16.630Z,56.20
2018-06-08T19:46:44.556Z,61.87
2018-06-08T19:49:12.809Z,75.50
2018-06-08T19:51:41.040Z,60.47
2018-06-08T19:54:09.261Z,71.67
2018-06-08T19:56:37.522Z,62.87
2018-06-08T19:59:05.817Z,71.90
2018-06-08T20:01:34.086Z,73.03
2018-06-08T20:04:02.321Z,75.10
2018-06-08T20:06:30.626Z,68.10
2018-06-08T20:08:58.873Z,71.53
2018-06-08T20:11:27.098Z,72.53
2018-06-08T20:13:55.063Z,70.63
2018-06-08T20:16:23.306Z,80.87
2018-06-08T20:18:51.489Z,77.37
2018-06-08T20:21:19.676Z,74.50
2018-06-08T20:23:48.052Z,80.90
2018-06-08T20:26:16.309Z,85.73
2018-06-08T20:28:44.564Z,80.90
2018-06-08T20:31:12.817Z,81.73
2018-06-08T20:33:41.019Z,81.57
2018-06-08T20:36:09.237Z,91.13
2018-06-08T20:38:37.212Z,83.47
2018-06-08T20:41:05.689Z,85.63
2018-06-08T20:43:34.193Z,79.27
2018-06-08T20:46:02.459Z,77.90
2018-06-08T20:48:30.846Z,78.83
2018-06-08T20:50:59.182Z,82.00
2018-06-08T20:53:27.446Z,94.63
2018-06-08T20:55:55.597Z,82.20
2018-06-08T20:58:26.785Z,79.03
2018-06-08T21:00:55.736Z,87.90
2018-06-08T21:03:23.986Z,93.07
2018-06-08T21:05:52.335Z,91.13
2018-06-08T21:08:20.617Z,82.47
2018-06-08T21:10:48.887Z,99.00
2018-06-08T21:13:17.756Z,92.73
2018-06-08T21:15:46.067Z,104.87
2018-06-08T21:18:14.337Z,94.53
2018-06-08T21:20:42.680Z,85.23
2018-06-08T21:23:10.649Z,103.20
2018-06-08T21:25:38.966Z,97.03
2018-06-08T21:28:07.221Z,97.37
2018-06-08T21:30:35.450Z,106.93
2018-06-08T21:33:03.693Z,108.87
2018-06-08T21:35:32.090Z,117.57
2018-06-08T21:38:00.342Z,106.67
2018-06-08T21:40:28.666Z,112.40
2018-06-08T21:42:56.901Z,106.73
2018-06-08T21:45:25.118Z,116.03
2018-06-08T21:47:53.754Z,130.57
2018-06-08T21:50:21.970Z,115.20
2018-06-08T21:52:50.194Z,118.93
2018-06-08T21:55:21.431Z,135.50
2018-06-08T21:57:49.599Z,112.93
2018-06-08T22:00:18.048Z,115.10
2018-06-08T22:02:46.301Z,129.67
2018-06-08T22:05:14.589Z,118.50
2018-06-08T22:07:42.869Z,130.40
2018-06-08T22:10:11.157Z,120.97
2018-06-08T22:12:39.391Z,113.17
2018-06-08T22:15:07.602Z,128.47
2018-06-08T22:17:35.785Z,124.83
2018-06-08T22:20:04.133Z,109.10
2018-06-08T22:22:32.356Z,115.93
2018-06-08T22:25:00.587Z,115.33
2018-06-08T22:27:28.835Z,116.00
2018-06-08T22:29:56.783Z,116.47
2018-06-08T22:32:25.001Z,126.70
2018-06-08T22:34:53.269Z,119.63
2018-06-08T22:37:21.231Z,119.17
2018-06-08T22:39:50.180Z,111.67
2018-06-08T22:42:18.426Z,110.37
2018-06-08T22:44:46.638Z,120.03
2018-06-08T22:47:14.853Z,115.60
2018-06-08T22:49:43.097Z,118.27
2018-06-08T22:52:11.329Z,127.77
2018-06-08T22:54:39.537Z,130.07
2018-06-08T22:57:07.773Z,121.67
2018-06-08T22:59:35.960Z,120.93
2018-06-08T23:02:04.169Z,116.10
2018-06-08T23:04:32.397Z,120.53
2018-06-08T23:07:00.482Z,126.70
2018-06-08T23:09:28.775Z,124.33
2018-06-08T23:11:57.022Z,126.03
2018-06-08T23:14:25.256Z,119.93
2018-06-08T23:16:53.515Z,122.23
2018-06-08T23:19:22.019Z,132.63
2018-06-08T23:21:50.252Z,127.20
2018-06-08T23:24:18.495Z,130.97
2018-06-08T23:26:46.757Z,129.20
2018-06-08T23:29:14.986Z,126.30
2018-06-08T23:31:43.174Z,127.33
2018-06-08T23:34:11.380Z,139.93
2018-06-08T23:36:39.628Z,122.40
2018-06-08T23:39:07.661Z,139.93
2018-06-08T23:41:35.993Z,131.10
2018-06-08T23:44:04.362Z,123.10
2018-06-08T23:46:32.560Z,120.50
2018-06-08T23:49:00.874Z,126.57
2018-06-08T23:51:29.097Z,131.50
2018-06-08T23:53:57.288Z,139.40
2018-06-08T23:56:25.525Z,133.33
2018-06-08T23:58:54.117Z,136.77
